Terminal Aerodrome Forecast
Issued by NWS

Home | Current Version | Previous Version | Text Only | Print | Product List | Glossary On
Versions: 1 2 3 4 5 6 7 8 9 10 11 12 13 14 15 16 17 18 19 20 21 22 23 24 25 26 27 28 29
000
FTUS43 KBIS 180520
TAFMOT
TAF
KMOT 180520Z 1806/1906 08016G21KT P6SM VCTS FEW070CB
      TEMPO 1806/1807 VRB20G38KT 3SM TSRA BKN035CB
     FM180900 30004KT P6SM FEW060 FEW150
     FM181700 32008KT P6SM FEW070 FEW250
     FM190200 21004KT P6SM SKC=

USA.gov is the U.S. government's official web portal to all federal, state and local government web resources and services.